• Join FlightAware (Why Join?)
  • Login
  • US Flag 
08:30AM EDT


 

Airport Tracker/Info


-or-


 

Live Flight TrackerFlight Track Log ✈ N137TK ✈ 23-Jun-2013 ✈ KAPF - KCOI

Flight Track Log - Related Links

Times and Time Zones

All times are in EDT time to prevent confusion due to time zone crossing. See the N137TK flight status page for this flight to view local times or setup timezone preferences in your user account.

Time Position Orientation Groundspeed Altitude Reporting Facility
EDT Latitude Longitude Course Direction KTS MPH feet Rate Location/Type
11:03AM 26.1828 -81.6742 38° Northeast 165 190 5,800  Level Miami Center
11:04AM 26.2228 -81.6664 10° North 173 199 7,900 2,040 Climbing Miami Center
11:05AM 26.2769 -81.6711 356° North 169 194 9,900 1,500 Climbing Miami Center
11:06AM 26.3292 -81.6661 North 181 208 11,000 1,020 Climbing Miami Center
11:07AM 26.5554 -81.7280 42° Northeast  Level FlightAware Approximate
11:07AM 26.3786 -81.6242 37° Northeast 189 217 12,000  Level Miami Center
11:08AM 26.4322 -81.5753 39° Northeast 226 260 12,000 300 Level Miami Center
11:09AM 26.4781 -81.5144 50° Northeast 231 266 12,600 480 Climbing Miami Center
11:10AM 26.5217 -81.4581 49° Northeast 245 282 13,000 180 Climbing Miami Center
11:11AM 26.5694 -81.4019 46° Northeast 251 289 13,000  Level Miami Center
11:12AM 26.6314 -81.3556 34° Northeast 251 289 13,000  Level Miami Center
11:13AM 26.6828 -81.3133 36° Northeast 256 295 13,000  Level Miami Center
11:14AM 26.7428 -81.2644 36° Northeast 261 300 13,000  Level Miami Center
11:15AM 26.8089 -81.2158 33° Northeast 261 300 13,000  Level Miami Center
11:16AM 26.8747 -81.1786 27° Northeast 266 306 13,000 -540 Level Miami Center
11:17AM 26.9364 -81.1414 28° Northeast 266 306 12,000 -960 Descending Miami Center
11:18AM 27.0025 -81.0972 31° Northeast 271 312 11,100 -1,020 Descending Miami Center
11:19AM 27.0789 -81.0533 27° Northeast 271 312 10,000 -600 Descending Miami Center
11:20AM 27.1425 -81.0183 26° Northeast 271 312 10,000  Level Miami Center
11:21AM 27.2083 -80.9808 27° Northeast 259 298 10,000  Level Miami Center
11:22AM 27.2656 -80.9481 27° Northeast 254 292 10,000  Level Miami Center
11:23AM 27.3314 -80.9106 27° Northeast 254 292 10,000 -480 Level Miami Center
11:24AM 27.3992 -80.8733 26° Northeast 260 299 9,100 -960 Descending Miami Center
11:25AM 27.4672 -80.8333 28° Northeast 266 306 8,100 -1,020 Descending Miami Center
11:26AM 27.5392 -80.7914 27° Northeast 266 306 7,100 -660 Descending Miami Center
11:27AM 27.6050 -80.7539 27° Northeast 266 306 6,800 -960 Descending Miami Center
11:29AM 27.7500 -80.6500 32° Northeast 253 291 4,200 -960 Descending Orlando TRACON
11:30AM 27.8167 -80.6333 12° North 252 290 4,000 -300 Descending Orlando TRACON
11:31AM 27.8667 -80.6000 31° Northeast 221 254 3,600 -540 Descending Orlando TRACON
11:32AM 27.9167 -80.5833 16° North 223 257 3,000 -360 Descending Orlando TRACON
11:33AM 27.9833 -80.5833 360° North 205 236 3,000  Level Orlando TRACON
11:34AM 28.0333 -80.6000 344° North 216 249 3,000  Level Orlando TRACON
11:35AM 28.1000 -80.6167 348° North 230 265 3,000 -480 Level Orlando TRACON
11:36AM 28.1667 -80.6333 348° North 234 269 2,100 -540 Descending Orlando TRACON
11:37AM 28.2167 -80.6500 344° North 191 220 2,000 -300 Descending Orlando TRACON
11:38AM 28.2667 -80.6667 344° North 203 234 1,500 -540 Descending Orlando TRACON